sensor_id;sensor_type;location;lat;lon;timestamp;temperature;humidity
18175;DHT22;9212;50.894;16.714;2022-11-15T00:00:56;2.60;99.90
18175;DHT22;9212;50.894;16.714;2022-11-15T00:03:25;2.70;99.90
18175;DHT22;9212;50.894;16.714;2022-11-15T00:05:53;2.70;99.90
18175;DHT22;9212;50.894;16.714;2022-11-15T00:08:20;2.50;99.90
18175;DHT22;9212;50.894;16.714;2022-11-15T00:10:54;2.50;99.90
18175;DHT22;9212;50.894;16.714;2022-11-15T00:13:22;3.10;99.90
18175;DHT22;9212;50.894;16.714;2022-11-15T00:15:49;3.50;99.90
18175;DHT22;9212;50.894;16.714;2022-11-15T00:18:16;2.60;99.90
18175;DHT22;9212;50.894;16.714;2022-11-15T00:20:43;2.40;99.90
18175;DHT22;9212;50.894;16.714;2022-11-15T00:23:12;2.40;99.90
18175;DHT22;9212;50.894;16.714;2022-11-15T00:25:39;2.40;99.90
18175;DHT22;9212;50.894;16.714;2022-11-15T00:28:06;2.60;99.90
18175;DHT22;9212;50.894;16.714;2022-11-15T00:30:33;2.20;99.90
18175;DHT22;9212;50.894;16.714;2022-11-15T00:33:05;2.60;99.90
18175;DHT22;9212;50.894;16.714;2022-11-15T00:35:32;2.50;99.90
18175;DHT22;9212;50.894;16.714;2022-11-15T00:40:29;2.20;99.90
18175;DHT22;9212;50.894;16.714;2022-11-15T00:42:56;2.50;99.90
18175;DHT22;9212;50.894;16.714;2022-11-15T00:45:23;2.50;99.90
18175;DHT22;9212;50.894;16.714;2022-11-15T00:47:51;2.40;99.90
18175;DHT22;9212;50.894;16.714;2022-11-15T00:50:18;2.10;99.90
18175;DHT22;9212;50.894;16.714;2022-11-15T00:52:45;3.20;99.90
18175;DHT22;9212;50.894;16.714;2022-11-15T00:55:13;1.90;99.90
18175;DHT22;9212;50.894;16.714;2022-11-15T00:57:41;2.10;99.90
18175;DHT22;9212;50.894;16.714;2022-11-15T01:00:09;2.00;99.90
18175;DHT22;9212;50.894;16.714;2022-11-15T01:02:36;2.20;99.90
18175;DHT22;9212;50.894;16.714;2022-11-15T01:05:04;2.50;99.90
18175;DHT22;9212;50.894;16.714;2022-11-15T01:07:31;2.10;99.90
18175;DHT22;9212;50.894;16.714;2022-11-15T01:09:58;2.10;99.90
18175;DHT22;9212;50.894;16.714;2022-11-15T01:12:25;2.50;99.90
18175;DHT22;9212;50.894;16.714;2022-11-15T01:14:54;2.10;99.90
18175;DHT22;9212;50.894;16.714;2022-11-15T01:17:20;2.60;99.90
18175;DHT22;9212;50.894;16.714;2022-11-15T01:19:48;2.60;99.90
18175;DHT22;9212;50.894;16.714;2022-11-15T01:22:15;2.30;99.90
18175;DHT22;9212;50.894;16.714;2022-11-15T01:24:42;1.80;99.90
18175;DHT22;9212;50.894;16.714;2022-11-15T01:27:09;2.40;99.90
18175;DHT22;9212;50.894;16.714;2022-11-15T01:29:36;2.70;99.90
18175;DHT22;9212;50.894;16.714;2022-11-15T01:32:04;2.80;99.90
18175;DHT22;9212;50.894;16.714;2022-11-15T01:34:31;2.30;99.90
18175;DHT22;9212;50.894;16.714;2022-11-15T01:36:58;2.50;99.90
18175;DHT22;9212;50.894;16.714;2022-11-15T01:41:53;1.80;99.90
18175;DHT22;9212;50.894;16.714;2022-11-15T01:44:40;2.70;99.90
18175;DHT22;9212;50.894;16.714;2022-11-15T01:47:12;2.40;99.90
18175;DHT22;9212;50.894;16.714;2022-11-15T01:49:45;2.30;99.90
18175;DHT22;9212;50.894;16.714;2022-11-15T01:52:18;2.40;99.90
18175;DHT22;9212;50.894;16.714;2022-11-15T01:54:46;2.60;99.90
18175;DHT22;9212;50.894;16.714;2022-11-15T01:57:14;2.60;99.90
18175;DHT22;9212;50.894;16.714;2022-11-15T01:59:43;2.70;99.90
18175;DHT22;9212;50.894;16.714;2022-11-15T02:02:12;2.60;99.90
18175;DHT22;9212;50.894;16.714;2022-11-15T02:04:41;2.50;99.90
18175;DHT22;9212;50.894;16.714;2022-11-15T02:07:10;2.70;99.90
18175;DHT22;9212;50.894;16.714;2022-11-15T02:09:38;2.50;99.90
18175;DHT22;9212;50.894;16.714;2022-11-15T02:12:07;2.80;99.90
18175;DHT22;9212;50.894;16.714;2022-11-15T02:14:38;2.60;99.90
18175;DHT22;9212;50.894;16.714;2022-11-15T02:17:18;2.80;99.90
18175;DHT22;9212;50.894;16.714;2022-11-15T02:20:14;2.80;99.90
18175;DHT22;9212;50.894;16.714;2022-11-15T02:23:04;2.70;99.90
18175;DHT22;9212;50.894;16.714;2022-11-15T02:25:39;2.80;99.90
18175;DHT22;9212;50.894;16.714;2022-11-15T02:28:22;2.70;99.90
18175;DHT22;9212;50.894;16.714;2022-11-15T02:30:55;2.60;99.90
18175;DHT22;9212;50.894;16.714;2022-11-15T02:33:34;2.60;99.90
18175;DHT22;9212;50.894;16.714;2022-11-15T02:36:05;2.10;99.90
18175;DHT22;9212;50.894;16.714;2022-11-15T02:38:40;2.40;99.90
18175;DHT22;9212;50.894;16.714;2022-11-15T02:41:13;3.30;99.90
18175;DHT22;9212;50.894;16.714;2022-11-15T02:43:46;2.70;99.90
18175;DHT22;9212;50.894;16.714;2022-11-15T02:46:28;2.70;99.90
18175;DHT22;9212;50.894;16.714;2022-11-15T02:49:16;2.60;99.90
18175;DHT22;9212;50.894;16.714;2022-11-15T02:51:45;2.80;99.90
18175;DHT22;9212;50.894;16.714;2022-11-15T02:54:15;2.80;99.90
18175;DHT22;9212;50.894;16.714;2022-11-15T02:56:43;3.00;99.90
18175;DHT22;9212;50.894;16.714;2022-11-15T02:59:41;2.70;99.90
18175;DHT22;9212;50.894;16.714;2022-11-15T03:02:28;2.60;99.90
18175;DHT22;9212;50.894;16.714;2022-11-15T03:05:04;3.20;99.90
18175;DHT22;9212;50.894;16.714;2022-11-15T03:07:37;2.60;99.90
18175;DHT22;9212;50.894;16.714;2022-11-15T03:10:12;2.70;99.90
18175;DHT22;9212;50.894;16.714;2022-11-15T03:12:48;4.50;99.90
18175;DHT22;9212;50.894;16.714;2022-11-15T03:15:20;2.70;99.90
18175;DHT22;9212;50.894;16.714;2022-11-15T03:17:53;4.60;99.90
18175;DHT22;9212;50.894;16.714;2022-11-15T03:20:25;2.50;99.90
18175;DHT22;9212;50.894;16.714;2022-11-15T03:22:55;2.40;99.90
18175;DHT22;9212;50.894;16.714;2022-11-15T03:25:25;4.00;99.90
18175;DHT22;9212;50.894;16.714;2022-11-15T03:27:56;2.70;99.90
18175;DHT22;9212;50.894;16.714;2022-11-15T03:30:23;2.50;99.90
18175;DHT22;9212;50.894;16.714;2022-11-15T03:32:54;2.90;99.90
18175;DHT22;9212;50.894;16.714;2022-11-15T03:35:23;2.70;99.90
18175;DHT22;9212;50.894;16.714;2022-11-15T03:37:54;2.80;99.90
18175;DHT22;9212;50.894;16.714;2022-11-15T03:40:30;2.80;99.90
18175;DHT22;9212;50.894;16.714;2022-11-15T03:43:04;2.60;99.90
18175;DHT22;9212;50.894;16.714;2022-11-15T03:45:37;2.60;99.90
18175;DHT22;9212;50.894;16.714;2022-11-15T03:48:12;2.50;99.90
18175;DHT22;9212;50.894;16.714;2022-11-15T03:50:41;2.70;99.90
18175;DHT22;9212;50.894;16.714;2022-11-15T03:53:08;2.70;99.90
18175;DHT22;9212;50.894;16.714;2022-11-15T03:55:35;2.70;99.90
18175;DHT22;9212;50.894;16.714;2022-11-15T03:58:02;2.60;99.90
18175;DHT22;9212;50.894;16.714;2022-11-15T04:00:29;2.40;99.90
18175;DHT22;9212;50.894;16.714;2022-11-15T04:02:56;2.50;99.90
18175;DHT22;9212;50.894;16.714;2022-11-15T04:05:24;2.30;99.90
18175;DHT22;9212;50.894;16.714;2022-11-15T04:07:51;4.40;99.90
18175;DHT22;9212;50.894;16.714;2022-11-15T04:10:19;2.50;99.90
18175;DHT22;9212;50.894;16.714;2022-11-15T04:12:46;2.40;99.90
18175;DHT22;9212;50.894;16.714;2022-11-15T04:15:15;2.30;99.90
18175;DHT22;9212;50.894;16.714;2022-11-15T04:17:43;2.40;99.90
18175;DHT22;9212;50.894;16.714;2022-11-15T04:20:13;2.30;99.90
18175;DHT22;9212;50.894;16.714;2022-11-15T04:23:00;2.40;99.90
18175;DHT22;9212;50.894;16.714;2022-11-15T04:25:45;2.50;99.90
18175;DHT22;9212;50.894;16.714;2022-11-15T04:28:13;2.30;99.90
18175;DHT22;9212;50.894;16.714;2022-11-15T04:30:40;2.30;99.90
18175;DHT22;9212;50.894;16.714;2022-11-15T04:33:07;5.90;99.90
18175;DHT22;9212;50.894;16.714;2022-11-15T04:35:34;2.10;99.90
18175;DHT22;9212;50.894;16.714;2022-11-15T04:38:06;2.10;99.90
18175;DHT22;9212;50.894;16.714;2022-11-15T04:40:33;2.40;99.90
18175;DHT22;9212;50.894;16.714;2022-11-15T04:43:01;2.10;99.90
18175;DHT22;9212;50.894;16.714;2022-11-15T04:45:28;2.40;99.90
18175;DHT22;9212;50.894;16.714;2022-11-15T04:47:55;3.00;99.90
18175;DHT22;9212;50.894;16.714;2022-11-15T04:52:53;2.40;99.90
18175;DHT22;9212;50.894;16.714;2022-11-15T04:55:21;3.10;99.90
18175;DHT22;9212;50.894;16.714;2022-11-15T04:57:57;2.60;99.90
18175;DHT22;9212;50.894;16.714;2022-11-15T05:00:26;3.30;99.90
18175;DHT22;9212;50.894;16.714;2022-11-15T05:02:53;2.60;99.90
18175;DHT22;9212;50.894;16.714;2022-11-15T05:05:38;2.70;99.90
18175;DHT22;9212;50.894;16.714;2022-11-15T05:08:05;2.40;99.90
18175;DHT22;9212;50.894;16.714;2022-11-15T05:10:33;2.30;99.90
18175;DHT22;9212;50.894;16.714;2022-11-15T05:13:00;2.40;99.90
18175;DHT22;9212;50.894;16.714;2022-11-15T05:15:27;2.70;99.90
18175;DHT22;9212;50.894;16.714;2022-11-15T05:17:57;2.70;99.90
18175;DHT22;9212;50.894;16.714;2022-11-15T05:20:24;2.50;99.90
18175;DHT22;9212;50.894;16.714;2022-11-15T05:22:52;2.50;99.90
18175;DHT22;9212;50.894;16.714;2022-11-15T05:25:20;2.70;99.90
18175;DHT22;9212;50.894;16.714;2022-11-15T05:27:48;2.80;99.90
18175;DHT22;9212;50.894;16.714;2022-11-15T05:30:16;2.50;99.90
18175;DHT22;9212;50.894;16.714;2022-11-15T05:32:43;2.20;99.90
18175;DHT22;9212;50.894;16.714;2022-11-15T05:35:20;2.10;99.90
18175;DHT22;9212;50.894;16.714;2022-11-15T05:37:48;2.40;99.90
18175;DHT22;9212;50.894;16.714;2022-11-15T05:40:16;1.90;99.90
18175;DHT22;9212;50.894;16.714;2022-11-15T05:42:43;2.10;99.90
18175;DHT22;9212;50.894;16.714;2022-11-15T05:45:12;2.00;99.90
18175;DHT22;9212;50.894;16.714;2022-11-15T05:47:39;2.00;99.90
18175;DHT22;9212;50.894;16.714;2022-11-15T05:50:07;1.80;99.90
18175;DHT22;9212;50.894;16.714;2022-11-15T05:52:38;1.90;99.90
18175;DHT22;9212;50.894;16.714;2022-11-15T05:55:06;2.70;99.90
18175;DHT22;9212;50.894;16.714;2022-11-15T05:57:34;1.80;99.90
18175;DHT22;9212;50.894;16.714;2022-11-15T06:00:02;2.00;99.90
18175;DHT22;9212;50.894;16.714;2022-11-15T06:02:30;2.10;99.90
18175;DHT22;9212;50.894;16.714;2022-11-15T06:04:57;2.30;99.90
18175;DHT22;9212;50.894;16.714;2022-11-15T06:07:24;2.60;99.90
18175;DHT22;9212;50.894;16.714;2022-11-15T06:09:51;5.90;99.90
18175;DHT22;9212;50.894;16.714;2022-11-15T06:12:18;2.50;99.90
18175;DHT22;9212;50.894;16.714;2022-11-15T06:14:45;3.00;99.90
18175;DHT22;9212;50.894;16.714;2022-11-15T06:17:12;2.30;99.90
18175;DHT22;9212;50.894;16.714;2022-11-15T06:19:40;2.20;99.90
18175;DHT22;9212;50.894;16.714;2022-11-15T06:22:07;2.30;99.90
18175;DHT22;9212;50.894;16.714;2022-11-15T06:24:34;2.20;99.90
18175;DHT22;9212;50.894;16.714;2022-11-15T06:29:29;2.40;99.90
18175;DHT22;9212;50.894;16.714;2022-11-15T06:31:56;2.40;99.90
18175;DHT22;9212;50.894;16.714;2022-11-15T06:34:23;4.10;99.90
18175;DHT22;9212;50.894;16.714;2022-11-15T06:36:51;2.90;99.90
18175;DHT22;9212;50.894;16.714;2022-11-15T06:39:18;2.60;99.90
18175;DHT22;9212;50.894;16.714;2022-11-15T06:41:46;2.60;99.90
18175;DHT22;9212;50.894;16.714;2022-11-15T06:44:12;2.60;99.90
18175;DHT22;9212;50.894;16.714;2022-11-15T06:46:39;2.70;99.90
18175;DHT22;9212;50.894;16.714;2022-11-15T06:49:06;2.70;99.90
18175;DHT22;9212;50.894;16.714;2022-11-15T06:51:33;2.70;99.90
18175;DHT22;9212;50.894;16.714;2022-11-15T06:54:02;2.60;99.90
18175;DHT22;9212;50.894;16.714;2022-11-15T07:01:23;2.60;99.90
18175;DHT22;9212;50.894;16.714;2022-11-15T07:03:50;2.70;99.90
18175;DHT22;9212;50.894;16.714;2022-11-15T07:06:17;2.80;99.90
18175;DHT22;9212;50.894;16.714;2022-11-15T07:08:44;5.30;99.90
18175;DHT22;9212;50.894;16.714;2022-11-15T07:11:12;3.10;99.90
18175;DHT22;9212;50.894;16.714;2022-11-15T07:13:40;3.00;99.90
18175;DHT22;9212;50.894;16.714;2022-11-15T07:16:08;2.90;99.90
18175;DHT22;9212;50.894;16.714;2022-11-15T07:18:36;2.90;99.90
18175;DHT22;9212;50.894;16.714;2022-11-15T07:21:05;3.20;99.90
18175;DHT22;9212;50.894;16.714;2022-11-15T07:23:32;3.20;99.90
18175;DHT22;9212;50.894;16.714;2022-11-15T07:28:28;2.90;99.90
18175;DHT22;9212;50.894;16.714;2022-11-15T07:33:23;3.70;99.90
18175;DHT22;9212;50.894;16.714;2022-11-15T07:40:46;4.10;99.90
18175;DHT22;9212;50.894;16.714;2022-11-15T07:43:13;4.30;99.90
18175;DHT22;9212;50.894;16.714;2022-11-15T07:45:44;4.30;99.90
18175;DHT22;9212;50.894;16.714;2022-11-15T07:48:11;4.60;99.90
18175;DHT22;9212;50.894;16.714;2022-11-15T07:50:40;4.60;99.90
18175;DHT22;9212;50.894;16.714;2022-11-15T07:53:07;4.70;99.90
18175;DHT22;9212;50.894;16.714;2022-11-15T07:55:35;4.70;99.90
18175;DHT22;9212;50.894;16.714;2022-11-15T07:58:02;5.30;99.90
18175;DHT22;9212;50.894;16.714;2022-11-15T08:00:30;5.40;99.90
18175;DHT22;9212;50.894;16.714;2022-11-15T08:03:06;7.80;99.90
18175;DHT22;9212;50.894;16.714;2022-11-15T08:05:34;5.90;99.90
18175;DHT22;9212;50.894;16.714;2022-11-15T08:08:02;5.60;99.90
18175;DHT22;9212;50.894;16.714;2022-11-15T08:10:29;5.70;99.90
18175;DHT22;9212;50.894;16.714;2022-11-15T08:12:57;6.00;99.90
18175;DHT22;9212;50.894;16.714;2022-11-15T08:17:56;5.80;99.90
18175;DHT22;9212;50.894;16.714;2022-11-15T08:20:26;5.90;99.90
18175;DHT22;9212;50.894;16.714;2022-11-15T08:22:55;9.30;99.90
18175;DHT22;9212;50.894;16.714;2022-11-15T08:25:22;6.50;99.90
18175;DHT22;9212;50.894;16.714;2022-11-15T08:27:52;6.20;99.90
18175;DHT22;9212;50.894;16.714;2022-11-15T08:30:20;6.80;99.90
18175;DHT22;9212;50.894;16.714;2022-11-15T08:32:48;6.40;99.90
18175;DHT22;9212;50.894;16.714;2022-11-15T08:35:16;6.60;99.90
18175;DHT22;9212;50.894;16.714;2022-11-15T08:37:44;6.90;99.90
18175;DHT22;9212;50.894;16.714;2022-11-15T08:42:39;6.90;99.90
18175;DHT22;9212;50.894;16.714;2022-11-15T08:45:07;7.20;99.90
18175;DHT22;9212;50.894;16.714;2022-11-15T08:47:35;7.30;99.90
18175;DHT22;9212;50.894;16.714;2022-11-15T08:50:02;7.60;99.90
18175;DHT22;9212;50.894;16.714;2022-11-15T08:52:29;7.40;99.90
18175;DHT22;9212;50.894;16.714;2022-11-15T08:54:57;7.60;99.90
18175;DHT22;9212;50.894;16.714;2022-11-15T09:02:19;7.70;99.90
18175;DHT22;9212;50.894;16.714;2022-11-15T09:04:46;7.80;99.90
18175;DHT22;9212;50.894;16.714;2022-11-15T09:07:13;7.90;99.90
18175;DHT22;9212;50.894;16.714;2022-11-15T09:09:40;8.10;99.90
18175;DHT22;9212;50.894;16.714;2022-11-15T09:12:09;8.20;99.90
18175;DHT22;9212;50.894;16.714;2022-11-15T09:14:36;8.30;99.90
18175;DHT22;9212;50.894;16.714;2022-11-15T09:19:30;8.60;99.90
18175;DHT22;9212;50.894;16.714;2022-11-15T09:21:58;8.60;99.90
18175;DHT22;9212;50.894;16.714;2022-11-15T09:24:25;8.50;99.90
18175;DHT22;9212;50.894;16.714;2022-11-15T09:26:52;8.90;99.90
18175;DHT22;9212;50.894;16.714;2022-11-15T09:29:20;9.60;99.90
18175;DHT22;9212;50.894;16.714;2022-11-15T09:31:47;8.80;99.90
18175;DHT22;9212;50.894;16.714;2022-11-15T09:34:14;9.30;99.90
18175;DHT22;9212;50.894;16.714;2022-11-15T09:36:41;9.30;99.90
18175;DHT22;9212;50.894;16.714;2022-11-15T09:39:08;9.40;99.90
18175;DHT22;9212;50.894;16.714;2022-11-15T09:41:52;9.20;99.90
18175;DHT22;9212;50.894;16.714;2022-11-15T09:44:41;9.40;99.90
18175;DHT22;9212;50.894;16.714;2022-11-15T09:50:09;9.70;99.90
18175;DHT22;9212;50.894;16.714;2022-11-15T09:52:37;9.60;99.90
18175;DHT22;9212;50.894;16.714;2022-11-15T09:55:07;9.80;99.90
18175;DHT22;9212;50.894;16.714;2022-11-15T09:57:40;9.80;99.90
18175;DHT22;9212;50.894;16.714;2022-11-15T10:00:15;10.10;99.90
18175;DHT22;9212;50.894;16.714;2022-11-15T10:02:56;10.20;99.90
18175;DHT22;9212;50.894;16.714;2022-11-15T10:05:25;10.10;99.90
18175;DHT22;9212;50.894;16.714;2022-11-15T10:07:58;10.50;99.90
18175;DHT22;9212;50.894;16.714;2022-11-15T10:10:30;10.50;99.90
18175;DHT22;9212;50.894;16.714;2022-11-15T10:12:59;11.00;99.90
18175;DHT22;9212;50.894;16.714;2022-11-15T10:15:27;10.90;99.90
18175;DHT22;9212;50.894;16.714;2022-11-15T10:18:05;11.50;99.90
18175;DHT22;9212;50.894;16.714;2022-11-15T10:20:40;11.20;99.90
18175;DHT22;9212;50.894;16.714;2022-11-15T10:23:13;11.60;99.90
18175;DHT22;9212;50.894;16.714;2022-11-15T10:25:40;11.60;99.90
18175;DHT22;9212;50.894;16.714;2022-11-15T10:28:12;11.80;99.90
18175;DHT22;9212;50.894;16.714;2022-11-15T10:30:43;12.10;99.90
18175;DHT22;9212;50.894;16.714;2022-11-15T10:33:26;12.20;99.90
18175;DHT22;9212;50.894;16.714;2022-11-15T10:36:18;12.00;99.90
18175;DHT22;9212;50.894;16.714;2022-11-15T10:38:57;12.30;99.90
18175;DHT22;9212;50.894;16.714;2022-11-15T10:41:34;12.30;99.90
18175;DHT22;9212;50.894;16.714;2022-11-15T10:44:12;12.60;99.90
18175;DHT22;9212;50.894;16.714;2022-11-15T10:46:46;12.50;99.90
18175;DHT22;9212;50.894;16.714;2022-11-15T10:49:17;12.80;99.90
18175;DHT22;9212;50.894;16.714;2022-11-15T10:51:47;12.80;99.90
18175;DHT22;9212;50.894;16.714;2022-11-15T10:54:20;13.10;99.90
18175;DHT22;9212;50.894;16.714;2022-11-15T10:56:50;13.00;99.90
18175;DHT22;9212;50.894;16.714;2022-11-15T10:59:23;13.20;99.90
18175;DHT22;9212;50.894;16.714;2022-11-15T11:01:52;13.10;99.90
18175;DHT22;9212;50.894;16.714;2022-11-15T11:04:19;13.10;99.90
18175;DHT22;9212;50.894;16.714;2022-11-15T11:06:48;13.20;99.90
18175;DHT22;9212;50.894;16.714;2022-11-15T11:09:27;13.20;99.90
18175;DHT22;9212;50.894;16.714;2022-11-15T11:11:55;13.20;99.90
18175;DHT22;9212;50.894;16.714;2022-11-15T11:14:23;13.30;99.90
18175;DHT22;9212;50.894;16.714;2022-11-15T11:16:57;13.30;99.90
18175;DHT22;9212;50.894;16.714;2022-11-15T11:19:44;13.50;99.90
18175;DHT22;9212;50.894;16.714;2022-11-15T11:22:20;13.30;99.90
18175;DHT22;9212;50.894;16.714;2022-11-15T11:24:58;13.20;99.90
18175;DHT22;9212;50.894;16.714;2022-11-15T11:27:41;13.30;99.90
18175;DHT22;9212;50.894;16.714;2022-11-15T11:30:14;13.40;99.90
18175;DHT22;9212;50.894;16.714;2022-11-15T11:33:03;13.20;99.90
18175;DHT22;9212;50.894;16.714;2022-11-15T11:35:37;13.30;99.90
18175;DHT22;9212;50.894;16.714;2022-11-15T11:38:19;13.30;99.90
18175;DHT22;9212;50.894;16.714;2022-11-15T11:41:00;13.20;99.90
18175;DHT22;9212;50.894;16.714;2022-11-15T11:43:35;13.30;99.90
18175;DHT22;9212;50.894;16.714;2022-11-15T11:46:22;13.40;99.90
18175;DHT22;9212;50.894;16.714;2022-11-15T11:48:58;13.50;99.90
18175;DHT22;9212;50.894;16.714;2022-11-15T11:51:32;13.40;99.90
18175;DHT22;9212;50.894;16.714;2022-11-15T11:54:05;13.40;99.90
18175;DHT22;9212;50.894;16.714;2022-11-15T11:56:34;13.30;99.90
18175;DHT22;9212;50.894;16.714;2022-11-15T11:59:09;13.50;99.90
18175;DHT22;9212;50.894;16.714;2022-11-15T12:01:41;13.40;99.90
18175;DHT22;9212;50.894;16.714;2022-11-15T12:04:14;13.50;99.90
18175;DHT22;9212;50.894;16.714;2022-11-15T12:06:47;13.40;99.90
18175;DHT22;9212;50.894;16.714;2022-11-15T12:09:19;13.40;99.90
18175;DHT22;9212;50.894;16.714;2022-11-15T12:11:52;13.50;99.90
18175;DHT22;9212;50.894;16.714;2022-11-15T12:14:27;13.40;99.90
18175;DHT22;9212;50.894;16.714;2022-11-15T12:16:57;13.50;99.90
18175;DHT22;9212;50.894;16.714;2022-11-15T12:19:26;13.50;99.90
18175;DHT22;9212;50.894;16.714;2022-11-15T12:21:56;13.40;99.90
18175;DHT22;9212;50.894;16.714;2022-11-15T12:24:32;13.40;99.90
18175;DHT22;9212;50.894;16.714;2022-11-15T12:27:03;13.20;99.90
18175;DHT22;9212;50.894;16.714;2022-11-15T12:29:36;13.40;99.90
18175;DHT22;9212;50.894;16.714;2022-11-15T12:32:04;13.60;99.90
18175;DHT22;9212;50.894;16.714;2022-11-15T12:34:44;13.60;99.90
18175;DHT22;9212;50.894;16.714;2022-11-15T12:37:46;13.60;99.90
18175;DHT22;9212;50.894;16.714;2022-11-15T12:40:28;13.60;99.90
18175;DHT22;9212;50.894;16.714;2022-11-15T12:43:02;13.70;99.90
18175;DHT22;9212;50.894;16.714;2022-11-15T12:45:31;13.50;99.90
18175;DHT22;9212;50.894;16.714;2022-11-15T12:48:48;13.50;99.90
18175;DHT22;9212;50.894;16.714;2022-11-15T12:51:19;13.60;99.90
18175;DHT22;9212;50.894;16.714;2022-11-15T12:53:46;13.50;99.90
18175;DHT22;9212;50.894;16.714;2022-11-15T12:56:21;13.40;99.90
18175;DHT22;9212;50.894;16.714;2022-11-15T12:58:51;13.40;99.90
18175;DHT22;9212;50.894;16.714;2022-11-15T13:01:59;13.70;99.90
18175;DHT22;9212;50.894;16.714;2022-11-15T13:04:30;13.50;99.90
18175;DHT22;9212;50.894;16.714;2022-11-15T13:07:00;13.40;99.90
18175;DHT22;9212;50.894;16.714;2022-11-15T13:09:58;13.60;99.90
18175;DHT22;9212;50.894;16.714;2022-11-15T13:12:53;13.30;99.90
18175;DHT22;9212;50.894;16.714;2022-11-15T13:15:56;13.20;99.90
18175;DHT22;9212;50.894;16.714;2022-11-15T13:18:34;13.20;99.90
18175;DHT22;9212;50.894;16.714;2022-11-15T13:21:03;12.80;99.90
18175;DHT22;9212;50.894;16.714;2022-11-15T13:23:57;13.10;99.90
18175;DHT22;9212;50.894;16.714;2022-11-15T13:26:24;13.10;99.90
18175;DHT22;9212;50.894;16.714;2022-11-15T13:28:52;13.10;99.90
18175;DHT22;9212;50.894;16.714;2022-11-15T13:31:35;12.80;99.90
18175;DHT22;9212;50.894;16.714;2022-11-15T13:34:16;12.80;99.90
18175;DHT22;9212;50.894;16.714;2022-11-15T13:36:44;12.80;99.90
18175;DHT22;9212;50.894;16.714;2022-11-15T13:39:23;12.80;99.90
18175;DHT22;9212;50.894;16.714;2022-11-15T13:41:52;12.50;99.90
18175;DHT22;9212;50.894;16.714;2022-11-15T13:44:20;12.50;99.90
18175;DHT22;9212;50.894;16.714;2022-11-15T13:46:47;12.40;99.90
18175;DHT22;9212;50.894;16.714;2022-11-15T13:49:14;12.20;99.90
18175;DHT22;9212;50.894;16.714;2022-11-15T13:51:46;12.20;99.90
18175;DHT22;9212;50.894;16.714;2022-11-15T13:54:20;12.20;99.90
18175;DHT22;9212;50.894;16.714;2022-11-15T13:56:49;12.00;99.90
18175;DHT22;9212;50.894;16.714;2022-11-15T13:59:24;12.00;99.90
18175;DHT22;9212;50.894;16.714;2022-11-15T14:01:52;11.90;99.90
18175;DHT22;9212;50.894;16.714;2022-11-15T14:04:22;11.70;99.90
18175;DHT22;9212;50.894;16.714;2022-11-15T14:06:52;11.70;99.90
18175;DHT22;9212;50.894;16.714;2022-11-15T14:09:32;11.90;99.90
18175;DHT22;9212;50.894;16.714;2022-11-15T14:12:01;11.40;99.90
18175;DHT22;9212;50.894;16.714;2022-11-15T14:14:29;11.20;99.90
18175;DHT22;9212;50.894;16.714;2022-11-15T14:16:58;11.30;99.90
18175;DHT22;9212;50.894;16.714;2022-11-15T14:19:37;11.50;99.90
18175;DHT22;9212;50.894;16.714;2022-11-15T14:22:16;10.70;99.90
18175;DHT22;9212;50.894;16.714;2022-11-15T14:24:46;10.70;99.90
18175;DHT22;9212;50.894;16.714;2022-11-15T14:27:22;10.40;99.90
18175;DHT22;9212;50.894;16.714;2022-11-15T14:29:50;10.50;99.90
18175;DHT22;9212;50.894;16.714;2022-11-15T14:32:19;10.20;99.90
18175;DHT22;9212;50.894;16.714;2022-11-15T14:34:47;10.10;99.90
18175;DHT22;9212;50.894;16.714;2022-11-15T14:37:20;9.70;99.90
18175;DHT22;9212;50.894;16.714;2022-11-15T14:39:50;9.70;99.90
18175;DHT22;9212;50.894;16.714;2022-11-15T14:42:17;10.50;99.90
18175;DHT22;9212;50.894;16.714;2022-11-15T14:44:44;9.30;99.90
18175;DHT22;9212;50.894;16.714;2022-11-15T14:47:11;8.90;99.90
18175;DHT22;9212;50.894;16.714;2022-11-15T14:49:38;8.80;99.90
18175;DHT22;9212;50.894;16.714;2022-11-15T14:52:17;9.40;99.90
18175;DHT22;9212;50.894;16.714;2022-11-15T14:54:49;8.90;99.90
18175;DHT22;9212;50.894;16.714;2022-11-15T14:57:15;8.40;99.90
18175;DHT22;9212;50.894;16.714;2022-11-15T14:59:42;8.40;99.90
18175;DHT22;9212;50.894;16.714;2022-11-15T15:02:15;7.80;99.90
18175;DHT22;9212;50.894;16.714;2022-11-15T15:04:42;7.60;99.90
18175;DHT22;9212;50.894;16.714;2022-11-15T15:07:09;7.40;99.90
18175;DHT22;9212;50.894;16.714;2022-11-15T15:09:36;7.80;99.90
18175;DHT22;9212;50.894;16.714;2022-11-15T15:12:05;7.50;99.90
18175;DHT22;9212;50.894;16.714;2022-11-15T15:14:33;7.20;99.90
18175;DHT22;9212;50.894;16.714;2022-11-15T15:19:27;7.30;99.90
18175;DHT22;9212;50.894;16.714;2022-11-15T15:21:54;9.40;99.90
18175;DHT22;9212;50.894;16.714;2022-11-15T15:24:21;9.00;99.90
18175;DHT22;9212;50.894;16.714;2022-11-15T15:26:48;7.10;99.90
18175;DHT22;9212;50.894;16.714;2022-11-15T15:29:16;8.20;99.90
18175;DHT22;9212;50.894;16.714;2022-11-15T15:31:43;9.00;99.90
18175;DHT22;9212;50.894;16.714;2022-11-15T15:34:10;8.80;99.90
18175;DHT22;9212;50.894;16.714;2022-11-15T15:36:37;7.10;99.90
18175;DHT22;9212;50.894;16.714;2022-11-15T15:39:04;8.70;99.90
18175;DHT22;9212;50.894;16.714;2022-11-15T15:41:31;6.70;99.90
18175;DHT22;9212;50.894;16.714;2022-11-15T15:43:57;8.20;99.90
18175;DHT22;9212;50.894;16.714;2022-11-15T15:46:26;8.10;99.90
18175;DHT22;9212;50.894;16.714;2022-11-15T15:48:53;7.50;99.90
18175;DHT22;9212;50.894;16.714;2022-11-15T15:51:20;6.30;99.90
18175;DHT22;9212;50.894;16.714;2022-11-15T15:53:47;6.30;99.90
18175;DHT22;9212;50.894;16.714;2022-11-15T15:56:14;6.30;99.90
18175;DHT22;9212;50.894;16.714;2022-11-15T15:58:41;6.30;99.90
18175;DHT22;9212;50.894;16.714;2022-11-15T16:01:08;6.70;99.90
18175;DHT22;9212;50.894;16.714;2022-11-15T16:03:36;6.20;99.90
18175;DHT22;9212;50.894;16.714;2022-11-15T16:06:03;5.60;99.90
18175;DHT22;9212;50.894;16.714;2022-11-15T16:08:30;5.70;99.90
18175;DHT22;9212;50.894;16.714;2022-11-15T16:10:57;6.20;99.90
18175;DHT22;9212;50.894;16.714;2022-11-15T16:13:24;6.50;99.90
18175;DHT22;9212;50.894;16.714;2022-11-15T16:15:53;6.10;99.90
18175;DHT22;9212;50.894;16.714;2022-11-15T16:18:21;5.80;99.90
18175;DHT22;9212;50.894;16.714;2022-11-15T16:20:50;7.20;99.90
18175;DHT22;9212;50.894;16.714;2022-11-15T16:23:20;5.40;99.90
18175;DHT22;9212;50.894;16.714;2022-11-15T16:25:51;5.70;99.90
18175;DHT22;9212;50.894;16.714;2022-11-15T16:28:20;5.40;99.90
18175;DHT22;9212;50.894;16.714;2022-11-15T16:30:48;5.10;99.90
18175;DHT22;9212;50.894;16.714;2022-11-15T16:33:15;5.30;99.90
18175;DHT22;9212;50.894;16.714;2022-11-15T16:35:45;5.20;99.90
18175;DHT22;9212;50.894;16.714;2022-11-15T16:38:15;4.80;99.90
18175;DHT22;9212;50.894;16.714;2022-11-15T16:40:42;5.20;99.90
18175;DHT22;9212;50.894;16.714;2022-11-15T16:43:09;5.10;99.90
18175;DHT22;9212;50.894;16.714;2022-11-15T16:45:36;5.80;99.90
18175;DHT22;9212;50.894;16.714;2022-11-15T16:48:03;5.20;99.90